Time;durP1;ratioP1;P1;durP2;ratioP2;P2;SDS_P1;SDS_P2;PMS_P1;PMS_P2;Temp;Humidity;BMP_temperature;BMP_pressure;BME280_temperature;BME280_humidity;BME280_pressure;Samples;Min_cycle;Max_cycle;Signal;HPM_P1;HPM_P2
2022/02/17 00:00:19;;;;;;;2.4;1.3;;;;;;;;;;;;;
2022/02/17 00:02:43;;;;;;;1.4;0.9;;;;;;;;;;;;;
2022/02/17 00:05:13;;;;;;;1.9;1.2;;;;;;;;;;;;;
2022/02/17 00:07:39;;;;;;;1.1;1;;;;;;;;;;;;;
2022/02/17 00:10:13;;;;;;;2.2;1.2;;;;;;;;;;;;;
2022/02/17 00:12:42;;;;;;;1.1;1;;;;;;;;;;;;;
2022/02/17 00:15:07;;;;;;;1.7;1.4;;;;;;;;;;;;;
2022/02/17 00:17:38;;;;;;;2;1.5;;;;;;;;;;;;;
2022/02/17 00:20:12;;;;;;;1.7;1.3;;;;;;;;;;;;;
2022/02/17 00:22:41;;;;;;;3.5;2.2;;;;;;;;;;;;;
2022/02/17 00:25:10;;;;;;;2.4;1.8;;;;;;;;;;;;;
2022/02/17 00:27:39;;;;;;;1.9;1.6;;;;;;;;;;;;;
2022/02/17 00:30:08;;;;;;;1.5;1.1;;;;;;;;;;;;;
2022/02/17 00:32:36;;;;;;;2.5;1.5;;;;;;;;;;;;;
2022/02/17 00:35:11;;;;;;;2.3;1.2;;;;;;;;;;;;;
2022/02/17 00:37:37;;;;;;;1.4;1;;;;;;;;;;;;;
2022/02/17 00:40:02;;;;;;;1.5;1.2;;;;;;;;;;;;;
2022/02/17 00:42:28;;;;;;;1.2;1.1;;;;;;;;;;;;;
2022/02/17 00:44:53;;;;;;;1.1;0.7;;;;;;;;;;;;;
2022/02/17 00:47:26;;;;;;;1.4;0.6;;;;;;;;;;;;;
2022/02/17 00:49:52;;;;;;;1.4;0.8;;;;;;;;;;;;;
2022/02/17 00:52:17;;;;;;;0.5;0.5;;;;;;;;;;;;;
2022/02/17 00:54:43;;;;;;;0.8;0.6;;;;;;;;;;;;;
2022/02/17 00:57:09;;;;;;;0.5;0.5;;;;;;;;;;;;;
2022/02/17 00:59:34;;;;;;;0.8;0.7;;;;;;;;;;;;;
2022/02/17 01:01:59;;;;;;;0.9;0.5;;;;;;;;;;;;;
2022/02/17 01:04:26;;;;;;;0.4;0.4;;;;;;;;;;;;;
2022/02/17 01:06:51;;;;;;;0.3;0.3;;;;;;;;;;;;;
2022/02/17 01:09:17;;;;;;;0.5;0.5;;;;;;;;;;;;;
2022/02/17 01:11:42;;;;;;;0.6;0.5;;;;;;;;;;;;;
2022/02/17 01:14:08;;;;;;;0.7;0.5;;;;;;;;;;;;;
2022/02/17 01:16:34;;;;;;;0.5;0.4;;;;;;;;;;;;;
2022/02/17 01:18:59;;;;;;;0.4;0.4;;;;;;;;;;;;;
2022/02/17 01:21:30;;;;;;;0.4;0.4;;;;;;;;;;;;;
2022/02/17 01:23:57;;;;;;;0.4;0.4;;;;;;;;;;;;;
2022/02/17 01:26:23;;;;;;;0.9;0.4;;;;;;;;;;;;;
2022/02/17 01:28:49;;;;;;;0.9;0.7;;;;;;;;;;;;;
2022/02/17 01:31:16;;;;;;;0.5;0.5;;;;;;;;;;;;;
2022/02/17 01:33:42;;;;;;;0.5;0.5;;;;;;;;;;;;;
2022/02/17 01:36:08;;;;;;;0.8;0.8;;;;;;;;;;;;;
2022/02/17 01:38:33;;;;;;;1.3;1;;;;;;;;;;;;;
2022/02/17 01:40:58;;;;;;;1.6;1.1;;;;;;;;;;;;;
2022/02/17 01:43:24;;;;;;;0.8;0.7;;;;;;;;;;;;;
2022/02/17 01:45:50;;;;;;;0.3;0.3;;;;;;;;;;;;;
2022/02/17 01:48:15;;;;;;;0.3;0.3;;;;;;;;;;;;;
2022/02/17 01:50:41;;;;;;;0.4;0.4;;;;;;;;;;;;;
2022/02/17 01:53:06;;;;;;;0.3;0.3;;;;;;;;;;;;;
2022/02/17 01:55:31;;;;;;;0.4;0.4;;;;;;;;;;;;;
2022/02/17 01:57:57;;;;;;;0.7;0.3;;;;;;;;;;;;;
2022/02/17 02:00:23;;;;;;;0.3;0.3;;;;;;;;;;;;;
2022/02/17 02:02:49;;;;;;;0.3;0.3;;;;;;;;;;;;;
2022/02/17 02:05:14;;;;;;;0.2;0.2;;;;;;;;;;;;;
2022/02/17 02:07:41;;;;;;;0.3;0.3;;;;;;;;;;;;;
2022/02/17 02:10:05;;;;;;;0.3;0.2;;;;;;;;;;;;;
2022/02/17 02:12:31;;;;;;;0.6;0.4;;;;;;;;;;;;;
2022/02/17 02:14:56;;;;;;;0.3;0.3;;;;;;;;;;;;;
2022/02/17 02:17:22;;;;;;;0.3;0.3;;;;;;;;;;;;;
2022/02/17 02:19:47;;;;;;;0.3;0.3;;;;;;;;;;;;;
2022/02/17 02:22:14;;;;;;;0.8;0.4;;;;;;;;;;;;;
2022/02/17 02:24:41;;;;;;;0.3;0.2;;;;;;;;;;;;;
2022/02/17 02:27:08;;;;;;;0.3;0.3;;;;;;;;;;;;;
2022/02/17 02:29:33;;;;;;;0.2;0.2;;;;;;;;;;;;;
2022/02/17 02:32:00;;;;;;;0.3;0.3;;;;;;;;;;;;;
2022/02/17 02:34:25;;;;;;;0.3;0.3;;;;;;;;;;;;;
2022/02/17 02:36:52;;;;;;;0.2;0.2;;;;;;;;;;;;;
2022/02/17 07:22:04;;;;;;;0.1;0.1;;;;;;;13.79;59.90918;927.197;;;;
2022/02/17 07:24:38;;;;;;;0.2;0.2;;;;;;;13.85;58.25098;927.3119;;;;
2022/02/17 07:27:16;;;;;;;0.2;0.2;;;;;;;13.97;58.03516;927.1447;;;;
2022/02/17 07:29:41;;;;;;;0.1;0.1;;;;;;;13.86;57.44629;927.3878;;;;
2022/02/17 07:32:06;;;;;;;0.4;0.4;;;;;;;13.73;57.73828;927.7231;;;;
2022/02/17 07:34:32;;;;;;;0.3;0.2;;;;;;;13.91;55.53125;927.702;;;;
2022/02/17 07:36:57;;;;;;;0.2;0.2;;;;;;;14.03;55.62598;927.7752;;;;
2022/02/17 07:39:30;;;;;;;0.2;0.1;;;;;;;14.2;54.37109;927.541;;;;
2022/02/17 07:41:55;;;;;;;0.1;0.1;;;;;;;14.3;53.18555;927.5047;;;;
2022/02/17 07:44:25;;;;;;;0.3;0.3;;;;;;;14.35;52.9834;927.5252;;;;
2022/02/17 07:46:48;;;;;;;0.1;0.1;;;;;;;14.42;52.39355;927.5575;;;;
2022/02/17 07:49:17;;;;;;;0.9;0.2;;;;;;;14.45;51.74121;927.7149;;;;
2022/02/17 07:51:43;;;;;;;0.1;0.1;;;;;;;14.54;50.47168;927.8427;;;;
2022/02/17 07:54:11;;;;;;;0.7;0.1;;;;;;;14.63;49.0752;927.7905;;;;
2022/02/17 07:56:36;;;;;;;0.1;0.1;;;;;;;14.47;50.10645;927.7617;;;;
2022/02/17 07:59:07;;;;;;;0.1;0.1;;;;;;;14.58;47.94141;927.6415;;;;
2022/02/17 08:01:40;;;;;;;0.1;0.1;;;;;;;14.55;48.16992;927.5371;;;;
2022/02/17 08:04:05;;;;;;;0.1;0.1;;;;;;;14.79;47.72168;927.4141;;;;
2022/02/17 08:06:43;;;;;;;0.6;0.2;;;;;;;14.75;48.23633;927.6314;;;;
2022/02/17 08:09:04;;;;;;;0.3;0.3;;;;;;;14.76;47.2002;927.9556;;;;
2022/02/17 08:11:29;;;;;;;0.2;0.2;;;;;;;14.72;48.71777;927.8187;;;;
2022/02/17 08:13:58;;;;;;;0.7;0.1;;;;;;;14.75;47.1416;927.7395;;;;
2022/02/17 08:16:28;;;;;;;0.3;0.3;;;;;;;14.66;48.2959;927.9564;;;;
2022/02/17 08:18:53;;;;;;;2.6;1.3;;;;;;;14.65;49.93066;928.0496;;;;
2022/02/17 08:21:24;;;;;;;1.3;1.2;;;;;;;14.77;47.59277;928.0693;;;;
2022/02/17 08:23:53;;;;;;;6;4.9;;;;;;;14.81;47.80566;927.9817;;;;
2022/02/17 08:26:20;;;;;;;1.6;1;;;;;;;15.08;47.4082;928.0023;;;;
2022/02/17 08:28:45;;;;;;;2.1;0.4;;;;;;;15.45;46.61621;928.0306;;;;
2022/02/17 08:31:14;;;;;;;0.1;0.1;;;;;;;15.6;46.43652;928.1199;;;;
2022/02/17 08:33:42;;;;;;;0.2;0.2;;;;;;;15.78;44.09766;927.9694;;;;
2022/02/17 08:36:19;;;;;;;0.2;0.2;;;;;;;16.26;43.12793;928.1707;;;;
2022/02/17 08:38:44;;;;;;;0.8;0.2;;;;;;;16.43;43.82813;928.1435;;;;
2022/02/17 08:41:09;;;;;;;0.2;0.2;;;;;;;15.81;46.81738;928.2502;;;;
2022/02/17 08:45:44;;;;;;;0.6;0.4;;;;;;;15.65;46.34961;928.3011;;;;
2022/02/17 08:48:14;;;;;;;0.2;0.2;;;;;;;15.97;45.57324;928.4022;;;;
2022/02/17 08:50:40;;;;;;;1.9;0.6;;;;;;;16.15;45.25586;928.3237;;;;
2022/02/17 08:53:04;;;;;;;0.2;0.2;;;;;;;15.77;46.06152;928.074;;;;
2022/02/17 08:55:37;;;;;;;0.1;0.1;;;;;;;16.65;43.28223;928.155;;;;
2022/02/17 08:58:07;;;;;;;0.2;0.2;;;;;;;16.65;42.54102;928.2224;;;;
2022/02/17 09:00:38;;;;;;;0.2;0.2;;;;;;;16.25;43.91406;927.8713;;;;
2022/02/17 09:03:11;;;;;;;0.1;0.1;;;;;;;16.7;43.83203;927.8281;;;;
2022/02/17 09:05:33;;;;;;;0.2;0.2;;;;;;;17.44;42.57129;927.9422;;;;
2022/02/17 09:08:02;;;;;;;0.1;0.1;;;;;;;16.86;40.39453;927.7978;;;;
2022/02/17 09:10:36;;;;;;;0.2;0.2;;;;;;;16.76;41.05859;927.9347;;;;
2022/02/17 09:13:08;;;;;;;0.4;0.1;;;;;;;16.69;40.51855;928.0439;;;;
2022/02/17 09:15:40;;;;;;;0.1;0.1;;;;;;;16.89;40.89648;928.1442;;;;
2022/02/17 09:18:10;;;;;;;0.9;0.2;;;;;;;16.32;43.46875;928.361;;;;
2022/02/17 09:20:36;;;;;;;0.1;0.1;;;;;;;15.97;44.78711;928.3989;;;;
2022/02/17 09:23:00;;;;;;;0;0;;;;;;;15.89;43.64648;928.2253;;;;
2022/02/17 09:25:31;;;;;;;0.6;0.1;;;;;;;15.84;44.81934;928.775;;;;
2022/02/17 09:28:03;;;;;;;0.3;0.3;;;;;;;15.54;46.97363;928.7751;;;;
2022/02/17 09:30:28;;;;;;;0;0;;;;;;;15.12;47.44727;929.0813;;;;
2022/02/17 09:33:01;;;;;;;0.4;0.2;;;;;;;14.59;50.24805;929.2762;;;;
2022/02/17 09:35:29;;;;;;;0.1;0.1;;;;;;;14.22;53.92383;929.3223;;;;
2022/02/17 09:37:56;;;;;;;0.1;0.1;;;;;;;14.07;54.27441;928.9983;;;;
2022/02/17 09:40:23;;;;;;;0.2;0.2;;;;;;;14.16;55.63184;928.7692;;;;
2022/02/17 09:42:49;;;;;;;0.3;0.3;;;;;;;14.72;54.81543;928.5817;;;;
2022/02/17 09:45:15;;;;;;;0.9;0.3;;;;;;;15.32;50.51563;928.7562;;;;
2022/02/17 09:47:41;;;;;;;0.7;0.3;;;;;;;16.19;49.83008;928.7153;;;;
2022/02/17 09:50:06;;;;;;;0.3;0.3;;;;;;;16.02;49.75195;928.6394;;;;
2022/02/17 09:52:32;;;;;;;0.2;0.2;;;;;;;15.97;48.39453;928.7402;;;;
2022/02/17 09:54:56;;;;;;;0.3;0.1;;;;;;;15.92;49.66113;928.7823;;;;
2022/02/17 09:57:28;;;;;;;0.5;0.5;;;;;;;15.64;47.67676;928.6135;;;;
2022/02/17 09:59:52;;;;;;;0.4;0.4;;;;;;;15.72;49.78809;928.5683;;;;
2022/02/17 10:02:18;;;;;;;0.1;0.1;;;;;;;15.97;47.2959;928.6702;;;;
2022/02/17 10:04:45;;;;;;;0.2;0.2;;;;;;;16.29;47.38867;928.7008;;;;
2022/02/17 10:07:10;;;;;;;0.4;0.3;;;;;;;16.03;48.36621;928.8538;;;;
2022/02/17 10:09:37;;;;;;;0.6;0.4;;;;;;;15.93;47.52344;929.1153;;;;
2022/02/17 10:12:03;;;;;;;0.1;0.1;;;;;;;15.45;48.89063;929.2195;;;;
2022/02/17 10:14:36;;;;;;;0.1;0.1;;;;;;;14.97;49.36816;929.228;;;;
2022/02/17 10:17:03;;;;;;;0.1;0.1;;;;;;;14.79;51.2959;929.1875;;;;
2022/02/17 10:19:31;;;;;;;0.4;0.2;;;;;;;15.03;51.8916;929.105;;;;
2022/02/17 10:21:56;;;;;;;0.1;0.1;;;;;;;15.13;50.63281;929.1823;;;;
2022/02/17 10:24:21;;;;;;;0.2;0.1;;;;;;;15.21;50.50391;929.3697;;;;
2022/02/17 10:26:48;;;;;;;0.1;0.1;;;;;;;14.78;50.86816;929.4811;;;;
2022/02/17 10:29:13;;;;;;;0.1;0.1;;;;;;;14.61;53.97168;930.0427;;;;
2022/02/17 10:31:44;;;;;;;0.1;0.1;;;;;;;14.09;56.90234;930.3906;;;;
2022/02/17 10:34:15;;;;;;;0.1;0;;;;;;;13.53;60.47363;930.2755;;;;
2022/02/17 10:36:44;;;;;;;0.1;0.1;;;;;;;12.99;63.80664;930.3666;;;;
2022/02/17 10:39:13;;;;;;;0.8;0.2;;;;;;;12.82;64.96582;930.2639;;;;
2022/02/17 10:41:38;;;;;;;0.1;0.1;;;;;;;13.56;63.52344;929.808;;;;
2022/02/17 10:44:07;;;;;;;0.2;0.2;;;;;;;14.68;58.99609;929.7203;;;;
2022/02/17 10:46:32;;;;;;;2.3;0.4;;;;;;;15.47;58.29395;929.4684;;;;
2022/02/17 10:49:00;;;;;;;0.1;0.1;;;;;;;16.55;52.85742;929.4338;;;;
2022/02/17 10:51:28;;;;;;;0.2;0.2;;;;;;;16.3;51.36914;929.483;;;;
2022/02/17 10:53:59;;;;;;;0.6;0.3;;;;;;;16.15;52.45117;929.6392;;;;
2022/02/17 10:56:24;;;;;;;0.1;0.1;;;;;;;16.18;50.19824;929.714;;;;
2022/02/17 10:58:55;;;;;;;0.1;0.1;;;;;;;15.7;49.43945;929.6531;;;;
2022/02/17 11:01:22;;;;;;;0.6;0.4;;;;;;;15.68;51.78223;929.7506;;;;
2022/02/17 11:03:48;;;;;;;0.7;0.5;;;;;;;15.38;50.88086;929.8681;;;;
2022/02/17 11:06:13;;;;;;;1.1;0.4;;;;;;;15.13;50.83984;929.8774;;;;
2022/02/17 11:08:38;;;;;;;0.1;0.1;;;;;;;15.16;49.60938;929.8951;;;;
2022/02/17 11:11:13;;;;;;;0.3;0.2;;;;;;;15.22;50.13477;929.7146;;;;
2022/02/17 11:13:46;;;;;;;0.1;0.1;;;;;;;15.15;49.30859;929.7012;;;;
2022/02/17 11:16:20;;;;;;;0.1;0.1;;;;;;;15.49;49.77344;929.6581;;;;
2022/02/17 11:18:51;;;;;;;1.3;0.3;;;;;;;15.31;49.46484;929.6973;;;;
2022/02/17 11:21:17;;;;;;;0.4;0.4;;;;;;;15.42;48.7373;930.0248;;;;
2022/02/17 11:23:49;;;;;;;0.1;0.1;;;;;;;15.31;48.37793;930.2388;;;;
2022/02/17 11:26:15;;;;;;;0.6;0.5;;;;;;;14.84;50.80664;930.5454;;;;
2022/02/17 11:28:40;;;;;;;1;0.9;;;;;;;14.3;56.04102;930.8222;;;;
2022/02/17 11:31:07;;;;;;;0.5;0.1;;;;;;;13.92;57.61523;930.6485;;;;
2022/02/17 11:33:38;;;;;;;0.3;0.2;;;;;;;13.93;59.74512;930.1394;;;;
2022/02/17 11:36:11;;;;;;;0.2;0.2;;;;;;;14.73;58.59863;930.1127;;;;
2022/02/17 11:38:36;;;;;;;0.2;0.2;;;;;;;16.57;50.78809;929.9925;;;;
2022/02/17 11:41:07;;;;;;;0.1;0.1;;;;;;;18.02;47.41309;929.9975;;;;
2022/02/17 11:43:34;;;;;;;1.3;0.5;;;;;;;19.26;43.00488;929.552;;;;
2022/02/17 11:46:03;;;;;;;0.4;0.4;;;;;;;20.56;41.21484;929.5466;;;;
2022/02/17 11:48:35;;;;;;;0.3;0.2;;;;;;;18.24;42.34668;929.3484;;;;
2022/02/17 11:51:11;;;;;;;0.1;0.1;;;;;;;17.04;45.41895;929.5714;;;;
2022/02/17 11:53:38;;;;;;;1.4;1;;;;;;;16.55;47.05859;929.8098;;;;
2022/02/17 11:56:03;;;;;;;0.2;0.2;;;;;;;15.91;45.87988;929.7853;;;;
2022/02/17 11:58:32;;;;;;;0.5;0.5;;;;;;;15.73;48.65625;929.9348;;;;
2022/02/17 12:01:04;;;;;;;0.3;0.3;;;;;;;16.64;47.19531;929.8769;;;;
2022/02/17 12:03:29;;;;;;;0.1;0.1;;;;;;;17.63;41.20898;929.7562;;;;
2022/02/17 12:06:00;;;;;;;0.2;0.2;;;;;;;18.96;41.24023;929.4306;;;;
2022/02/17 12:08:30;;;;;;;0.2;0.2;;;;;;;19.97;39.46777;929.3582;;;;
2022/02/17 12:10:56;;;;;;;0.1;0.1;;;;;;;20.05;37.56152;929.4296;;;;
2022/02/17 12:13:27;;;;;;;0.2;0.2;;;;;;;18.42;40.0166;929.3772;;;;
2022/02/17 12:16:05;;;;;;;0.6;0.2;;;;;;;17.06;42.93945;929.4397;;;;
2022/02/17 12:18:31;;;;;;;0.1;0.1;;;;;;;16.18;44.48535;929.5812;;;;
2022/02/17 12:20:56;;;;;;;0.2;0.2;;;;;;;15.79;46.81445;929.6348;;;;
2022/02/17 12:23:21;;;;;;;0.1;0.1;;;;;;;15.65;47.1582;929.6872;;;;
2022/02/17 12:25:52;;;;;;;1;0.6;;;;;;;15.79;48.3291;929.4998;;;;
2022/02/17 12:28:18;;;;;;;0.5;0.3;;;;;;;15.97;48.47559;929.4781;;;;
2022/02/17 12:30:46;;;;;;;1.2;0.9;;;;;;;15.65;47.26172;929.4623;;;;
2022/02/17 12:33:16;;;;;;;0.1;0.1;;;;;;;15.42;46.01367;929.4368;;;;
2022/02/17 12:35:47;;;;;;;0.4;0.2;;;;;;;14.93;49.24902;929.6497;;;;
2022/02/17 12:38:18;;;;;;;0.5;0.3;;;;;;;14.46;49.17188;929.6939;;;;
2022/02/17 12:40:43;;;;;;;0.8;0.6;;;;;;;14.36;51.29199;929.9291;;;;
2022/02/17 12:43:11;;;;;;;0.1;0.1;;;;;;;14.27;51.44238;930.0037;;;;
2022/02/17 12:45:36;;;;;;;4.6;2.5;;;;;;;15.56;49.9082;929.9736;;;;
2022/02/17 12:48:06;;;;;;;2.6;2.2;;;;;;;15.68;47.02246;929.6398;;;;
2022/02/17 12:50:32;;;;;;;0;0;;;;;;;15.55;47.64355;929.8928;;;;
2022/02/17 12:52:57;;;;;;;0.6;0.5;;;;;;;15.09;49.60156;929.9609;;;;
2022/02/17 12:55:29;;;;;;;0.8;0.6;;;;;;;15.31;48.54102;930.068;;;;
2022/02/17 12:57:54;;;;;;;0.1;0.1;;;;;;;15.13;46.80176;929.9825;;;;
2022/02/17 13:00:26;;;;;;;0.2;0.2;;;;;;;15.07;48.94043;930.0055;;;;
2022/02/17 13:02:51;;;;;;;0.3;0.2;;;;;;;15.21;46.62695;930.1442;;;;
2022/02/17 13:05:23;;;;;;;0;0;;;;;;;16.1;44.84668;929.9819;;;;
2022/02/17 13:07:53;;;;;;;0.3;0.1;;;;;;;17.82;41.20313;929.9724;;;;
2022/02/17 13:10:19;;;;;;;0.2;0.2;;;;;;;18.36;40.95117;929.9803;;;;
2022/02/17 13:12:50;;;;;;;0.7;0.6;;;;;;;18.63;39.68652;929.7527;;;;
2022/02/17 13:15:20;;;;;;;0.2;0.2;;;;;;;18.05;40.06348;929.9719;;;;
2022/02/17 13:17:45;;;;;;;0.2;0.2;;;;;;;17.59;41.87891;929.8627;;;;
2022/02/17 13:20:20;;;;;;;0.1;0.1;;;;;;;16.92;42.54395;929.9953;;;;
2022/02/17 13:22:46;;;;;;;0.1;0.1;;;;;;;17.03;43.48145;930.0261;;;;
2022/02/17 13:25:20;;;;;;;0.8;0.1;;;;;;;16.44;42.64844;929.9559;;;;
2022/02/17 13:27:51;;;;;;;0.6;0.1;;;;;;;16.19;45.29492;929.9226;;;;
2022/02/17 13:30:16;;;;;;;0.1;0.1;;;;;;;16.42;43.76855;930.0923;;;;
2022/02/17 13:32:42;;;;;;;0.5;0.2;;;;;;;17.83;41.61035;929.9553;;;;
2022/02/17 13:35:12;;;;;;;0.8;0.2;;;;;;;16.76;42.57422;929.8804;;;;
2022/02/17 13:37:37;;;;;;;0.1;0.1;;;;;;;16.49;43.07031;929.9595;;;;
2022/02/17 13:40:02;;;;;;;0.5;0.4;;;;;;;16.63;43.62793;930.1305;;;;
2022/02/17 13:42:27;;;;;;;0.1;0.1;;;;;;;16.25;42.72266;930.1227;;;;
2022/02/17 13:44:53;;;;;;;0.1;0.1;;;;;;;16.4;43.53516;930.2548;;;;
2022/02/17 13:47:21;;;;;;;0.2;0.2;;;;;;;15.65;44.29297;930.2216;;;;
2022/02/17 13:49:45;;;;;;;0.2;0.2;;;;;;;15.33;46.99609;930.438;;;;
2022/02/17 13:52:13;;;;;;;0.7;0.3;;;;;;;14.68;48.10254;930.54;;;;
2022/02/17 13:54:38;;;;;;;0.2;0.2;;;;;;;15.09;46.35938;930.632;;;;
2022/02/17 13:57:09;;;;;;;0.4;0.3;;;;;;;15.27;48.56055;930.7231;;;;
2022/02/17 13:59:40;;;;;;;0.2;0.2;;;;;;;14.96;47.38281;930.9182;;;;
2022/02/17 14:02:05;;;;;;;0.1;0.1;;;;;;;14.58;47.88379;931.0278;;;;
2022/02/17 14:04:30;;;;;;;0.3;0.3;;;;;;;14.09;49.5918;931.2706;;;;
2022/02/17 14:07:03;;;;;;;0.2;0.2;;;;;;;13.76;52.94629;931.3797;;;;
2022/02/17 14:09:34;;;;;;;0.6;0.3;;;;;;;14.31;52.41504;931.1625;;;;
2022/02/17 14:12:00;;;;;;;0.6;0.4;;;;;;;14.6;50.47852;931.3865;;;;
2022/02/17 14:14:25;;;;;;;0.3;0.2;;;;;;;14.57;51.77637;931.4167;;;;
2022/02/17 14:16:58;;;;;;;0.2;0.2;;;;;;;14.85;51.43066;931.188;;;;
2022/02/17 14:19:23;;;;;;;0.3;0.3;;;;;;;14.7;48.63379;931.0309;;;;
2022/02/17 14:21:53;;;;;;;0.2;0.2;;;;;;;14.53;50.0791;931.2715;;;;
2022/02/17 14:24:25;;;;;;;0.2;0.2;;;;;;;14.5;50.72168;931.1246;;;;
2022/02/17 14:26:55;;;;;;;0.9;0.6;;;;;;;15.59;50.0498;931.0325;;;;
2022/02/17 14:29:20;;;;;;;0.9;0.8;;;;;;;16.07;46.28906;930.8089;;;;
2022/02/17 14:31:52;;;;;;;1.8;1.7;;;;;;;15.99;46.21094;930.7367;;;;
2022/02/17 14:34:22;;;;;;;0.7;0.7;;;;;;;15.98;46.93848;930.8477;;;;
2022/02/17 14:36:53;;;;;;;0.6;0.6;;;;;;;15.43;46.54492;930.932;;;;
2022/02/17 14:39:24;;;;;;;1.5;0.9;;;;;;;15.05;47.04688;930.9664;;;;
2022/02/17 14:41:47;;;;;;;1.5;1.4;;;;;;;14.79;48.99023;931.2937;;;;
2022/02/17 14:44:20;;;;;;;1.7;1.5;;;;;;;14.7;48.28809;931.3547;;;;
2022/02/17 14:46:46;;;;;;;0.4;0.4;;;;;;;13.65;48.83984;931.2291;;;;
2022/02/17 14:49:16;;;;;;;1.4;0.3;;;;;;;13.38;49.22266;931.1642;;;;
2022/02/17 14:51:41;;;;;;;0.4;0.4;;;;;;;13.11;50.41016;931.1478;;;;
2022/02/17 14:54:11;;;;;;;0.5;0.5;;;;;;;13.12;49.74609;930.9797;;;;
2022/02/17 14:56:40;;;;;;;0.2;0.2;;;;;;;13.16;49.15137;930.9666;;;;
2022/02/17 14:59:10;;;;;;;0.7;0.5;;;;;;;13.24;48.89648;931.0485;;;;
2022/02/17 15:01:37;;;;;;;0.9;0.4;;;;;;;13.25;49.17383;930.9515;;;;
2022/02/17 15:04:08;;;;;;;0.6;0.4;;;;;;;13.05;49.24219;931.0038;;;;
2022/02/17 15:06:39;;;;;;;0.9;0.4;;;;;;;13.13;49.88379;931.0373;;;;
2022/02/17 15:09:03;;;;;;;0.2;0.2;;;;;;;13.27;49.26855;930.9561;;;;
2022/02/17 15:11:28;;;;;;;0.3;0.3;;;;;;;13.24;48.37891;931.0101;;;;
2022/02/17 15:13:57;;;;;;;0.3;0.3;;;;;;;13.18;48.33887;931.0616;;;;
2022/02/17 15:16:24;;;;;;;0.3;0.2;;;;;;;13.28;48.22363;930.8625;;;;
2022/02/17 15:18:49;;;;;;;0.8;0.4;;;;;;;13.43;48.45898;930.9695;;;;
2022/02/17 15:21:18;;;;;;;0.3;0.3;;;;;;;13.41;47.8252;930.9119;;;;
2022/02/17 15:23:49;;;;;;;1.1;0.5;;;;;;;13.59;47.7627;930.9041;;;;
2022/02/17 15:26:22;;;;;;;0.5;0.3;;;;;;;13.67;47.42676;930.9586;;;;
2022/02/17 15:28:47;;;;;;;0.7;0.3;;;;;;;13.58;46.99219;930.7403;;;;
2022/02/17 15:31:12;;;;;;;0.2;0.2;;;;;;;13.45;47.66797;930.6437;;;;
2022/02/17 15:33:44;;;;;;;0.6;0.4;;;;;;;13.6;47.1084;930.7969;;;;
2022/02/17 15:36:10;;;;;;;0.5;0.4;;;;;;;13.34;45.63379;930.7392;;;;
2022/02/17 15:38:39;;;;;;;0.9;0.5;;;;;;;13.17;47.25781;930.6874;;;;
2022/02/17 15:41:09;;;;;;;1.6;1.1;;;;;;;13.3;47.62891;930.8933;;;;
2022/02/17 15:43:38;;;;;;;0.6;0.5;;;;;;;13.2;46.3418;930.952;;;;
2022/02/17 15:46:06;;;;;;;1.4;0.8;;;;;;;13.13;46.18457;930.903;;;;
2022/02/17 15:48:37;;;;;;;1.4;1;;;;;;;12.95;47.37207;930.9039;;;;
2022/02/17 15:51:06;;;;;;;2.6;2;;;;;;;12.86;48.75098;931.0256;;;;
2022/02/17 15:53:36;;;;;;;1.5;1.1;;;;;;;12.82;48.91895;931.1316;;;;
2022/02/17 15:56:08;;;;;;;1.1;1;;;;;;;12.78;50.28027;931.0174;;;;
2022/02/17 15:58:36;;;;;;;1.2;0.9;;;;;;;12.75;50.83984;930.9242;;;;
2022/02/17 16:01:01;;;;;;;0.7;0.5;;;;;;;12.58;49.80957;930.9593;;;;
2022/02/17 16:03:29;;;;;;;1.2;0.8;;;;;;;12.5;50.99316;930.9194;;;;
2022/02/17 16:05:57;;;;;;;0.8;0.7;;;;;;;12.52;51.07617;930.8761;;;;
2022/02/17 16:08:28;;;;;;;1;0.5;;;;;;;12.33;51.22559;930.9088;;;;
2022/02/17 16:10:56;;;;;;;3.7;1.9;;;;;;;12.28;52.54883;931.0178;;;;
2022/02/17 16:13:22;;;;;;;0.6;0.6;;;;;;;12.28;52.88281;931.1398;;;;
2022/02/17 16:15:59;;;;;;;0.9;0.6;;;;;;;12.16;53.24512;931.1422;;;;
2022/02/17 16:18:27;;;;;;;0.7;0.4;;;;;;;12.11;54.7168;931.4954;;;;
2022/02/17 16:20:54;;;;;;;3.6;3.1;;;;;;;12.15;54.27539;931.7098;;;;
2022/02/17 16:23:22;;;;;;;2.7;2.1;;;;;;;12.23;55.66113;931.7206;;;;
2022/02/17 16:25:46;;;;;;;1.5;1;;;;;;;12.19;54.81836;931.8508;;;;
2022/02/17 16:28:22;;;;;;;1;0.9;;;;;;;11.8;58.9375;932.1741;;;;
2022/02/17 16:30:49;;;;;;;0.7;0.7;;;;;;;11.57;59.71973;932.3931;;;;
2022/02/17 16:33:22;;;;;;;1.7;0.5;;;;;;;11.4;59.69629;932.2914;;;;
2022/02/17 16:35:57;;;;;;;0.4;0.4;;;;;;;11.46;59.32617;932.5044;;;;
2022/02/17 16:38:38;;;;;;;6.5;1;;;;;;;11.36;57.66504;932.4048;;;;
2022/02/17 16:40:56;;;;;;;1.2;0.5;;;;;;;11.37;56.94531;932.325;;;;
2022/02/17 16:43:37;;;;;;;6.2;4;;;;;;;11.36;56.69238;932.239;;;;
2022/02/17 16:46:04;;;;;;;4.1;2.6;;;;;;;11.52;54.39063;932.3463;;;;
2022/02/17 16:48:36;;;;;;;0.8;0.7;;;;;;;11.6;54.74414;932.4392;;;;
2022/02/17 16:51:11;;;;;;;5;3.2;;;;;;;11.5;57.1582;932.2794;;;;
2022/02/17 16:53:36;;;;;;;1.9;1.4;;;;;;;11.42;51.79297;932.1951;;;;
2022/02/17 16:56:10;;;;;;;1.2;1.1;;;;;;;11.63;54.08398;932.1667;;;;
2022/02/17 16:58:34;;;;;;;3.7;2.4;;;;;;;11.61;55.58105;932.188;;;;
2022/02/17 17:01:09;;;;;;;1.9;1.6;;;;;;;11.49;57.68164;932.0339;;;;
2022/02/17 17:03:33;;;;;;;3.2;1.1;;;;;;;11.34;53.96777;932.2167;;;;
2022/02/17 17:05:58;;;;;;;4.4;3.1;;;;;;;10.99;59.1377;932.3915;;;;
2022/02/17 17:08:28;;;;;;;3.2;1.2;;;;;;;10.95;58.92578;932.4211;;;;
2022/02/17 17:10:54;;;;;;;2.3;0.9;;;;;;;11.04;50.63867;932.387;;;;
2022/02/17 17:13:19;;;;;;;1.6;0.9;;;;;;;11.4;48.96484;932.2564;;;;
2022/02/17 17:15:47;;;;;;;2.1;0.8;;;;;;;11.54;49.59961;932.2896;;;;
2022/02/17 17:18:18;;;;;;;1.2;0.7;;;;;;;11.63;50.4668;932.3876;;;;
2022/02/17 17:20:51;;;;;;;1.1;0.8;;;;;;;11.63;47.62793;932.5622;;;;
2022/02/17 17:23:22;;;;;;;1.8;0.9;;;;;;;11.71;49.92676;932.715;;;;
2022/02/17 17:25:54;;;;;;;1.3;0.6;;;;;;;11.69;49.08789;932.9384;;;;
2022/02/17 17:28:26;;;;;;;2.8;1.7;;;;;;;11.81;49.17188;932.8125;;;;
2022/02/17 17:30:50;;;;;;;1;0.8;;;;;;;11.82;47.89063;932.7534;;;;
2022/02/17 17:33:16;;;;;;;2.5;1.5;;;;;;;11.95;46.2998;932.6842;;;;
2022/02/17 17:35:49;;;;;;;2.4;1;;;;;;;11.9;48.49414;933.0067;;;;
2022/02/17 17:38:14;;;;;;;0.9;0.6;;;;;;;11.71;49.73242;932.8992;;;;
2022/02/17 17:40:43;;;;;;;1.5;0.8;;;;;;;11.51;53.80469;933.0336;;;;
2022/02/17 17:43:08;;;;;;;1.2;0.6;;;;;;;11.41;53.34766;932.8784;;;;
2022/02/17 17:45:39;;;;;;;0.7;0.6;;;;;;;11.44;51.40625;933.0664;;;;
2022/02/17 17:48:02;;;;;;;1.5;0.6;;;;;;;11.51;53.04004;933.1372;;;;
2022/02/17 17:50:29;;;;;;;0.8;0.6;;;;;;;11.47;50.76953;933.1078;;;;
2022/02/17 17:52:55;;;;;;;1.4;0.7;;;;;;;11.44;52.62988;933.1558;;;;
2022/02/17 17:55:27;;;;;;;0.9;0.5;;;;;;;11.32;55.94434;933.669;;;;
2022/02/17 17:57:52;;;;;;;1.1;0.6;;;;;;;11.15;56.63086;933.6234;;;;
2022/02/17 18:00:21;;;;;;;1.1;0.5;;;;;;;10.89;59.09961;933.6972;;;;
2022/02/17 18:02:49;;;;;;;1.7;0.8;;;;;;;10.76;60.30469;933.7963;;;;
2022/02/17 18:05:14;;;;;;;1.2;0.4;;;;;;;10.64;62.11523;933.7738;;;;
2022/02/17 18:07:42;;;;;;;1.2;0.7;;;;;;;10.44;63.33105;933.8567;;;;
2022/02/17 18:10:14;;;;;;;1.4;0.9;;;;;;;10.41;64.53613;934.1248;;;;
2022/02/17 18:12:43;;;;;;;0.7;0.6;;;;;;;10.33;64.99121;934.3351;;;;
2022/02/17 18:15:20;;;;;;;1.4;0.7;;;;;;;10.29;66.49414;934.2634;;;;
2022/02/17 18:17:48;;;;;;;0.9;0.8;;;;;;;10.3;68.75488;934.1083;;;;
2022/02/17 18:20:22;;;;;;;2.4;1.7;;;;;;;10.21;67.26758;934.1947;;;;
2022/02/17 18:22:47;;;;;;;0.7;0.5;;;;;;;10.2;67.69922;934.3491;;;;
2022/02/17 18:25:12;;;;;;;22.1;14.6;;;;;;;10.08;67.91895;934.39;;;;
2022/02/17 18:27:42;;;;;;;0.9;0.8;;;;;;;9.98;69.72754;934.7957;;;;
2022/02/17 18:30:09;;;;;;;1.3;0.8;;;;;;;9.92;69.90137;934.9073;;;;
2022/02/17 18:32:34;;;;;;;5.7;4;;;;;;;9.8;71.13672;934.8467;;;;
2022/02/17 18:34:59;;;;;;;2.5;1.6;;;;;;;9.52;72.88965;934.8373;;;;
2022/02/17 18:37:26;;;;;;;6;4.4;;;;;;;9.39;74.30176;934.7772;;;;
2022/02/17 18:39:51;;;;;;;4.3;2.4;;;;;;;9.37;74.77734;934.6959;;;;
2022/02/17 18:42:16;;;;;;;1.4;1;;;;;;;9.39;75.33789;934.8153;;;;
2022/02/17 18:47:09;;;;;;;3.5;2.2;;;;;;;9.5;75.5752;934.7219;;;;
2022/02/17 18:49:35;;;;;;;4.2;1.7;;;;;;;9.54;76.00293;934.8851;;;;
2022/02/17 18:52:04;;;;;;;1.8;1.1;;;;;;;9.26;77.88867;934.9572;;;;
2022/02/17 18:54:29;;;;;;;2.4;1.7;;;;;;;9.3;77.62402;934.9543;;;;
2022/02/17 18:56:57;;;;;;;7.9;4.5;;;;;;;9.17;78.55566;934.8505;;;;
2022/02/17 18:59:27;;;;;;;5.1;3.5;;;;;;;9.05;79.79688;935.0376;;;;
2022/02/17 19:01:48;;;;;;;26.6;19.7;;;;;;;8.94;77.48926;935.0846;;;;
2022/02/17 19:04:19;;;;;;;1.1;0.8;;;;;;;9.22;65.23535;934.9148;;;;
2022/02/17 19:06:51;;;;;;;1.9;0.9;;;;;;;9.6;61.65723;934.9666;;;;
2022/02/17 19:09:21;;;;;;;4.8;3.7;;;;;;;9.15;73.5459;934.9758;;;;
2022/02/17 19:11:50;;;;;;;2.9;1.9;;;;;;;9.24;69.4834;935.0825;;;;
2022/02/17 19:14:21;;;;;;;3.2;1.4;;;;;;;9.38;69.71094;935.2658;;;;
2022/02/17 19:16:50;;;;;;;4.5;2.9;;;;;;;9.54;71.65137;935.6353;;;;
2022/02/17 19:19:15;;;;;;;3.1;1.7;;;;;;;9.28;69.76465;935.4205;;;;
2022/02/17 19:21:40;;;;;;;3.5;1.7;;;;;;;9.42;70.34375;935.5652;;;;
2022/02/17 19:24:13;;;;;;;1;0.6;;;;;;;9.4;69.56641;935.5607;;;;
2022/02/17 19:26:37;;;;;;;2.3;0.8;;;;;;;9.43;69.58301;935.7346;;;;
2022/02/17 19:29:03;;;;;;;2.1;0.8;;;;;;;9.37;70.28906;935.5874;;;;
2022/02/17 19:31:33;;;;;;;1.7;1;;;;;;;9.25;71.05859;935.7294;;;;
2022/02/17 19:34:00;;;;;;;2.1;0.9;;;;;;;9.43;72.12305;935.783;;;;
2022/02/17 19:36:30;;;;;;;3.2;1.9;;;;;;;9.26;73.47168;936.0123;;;;
2022/02/17 19:39:04;;;;;;;2.9;1;;;;;;;9.17;72.78516;936.0181;;;;
2022/02/17 19:41:32;;;;;;;2.6;0.9;;;;;;;9.15;72.16699;936.0234;;;;
2022/02/17 19:43:57;;;;;;;1.7;0.8;;;;;;;9.08;72.16699;935.9766;;;;
2022/02/17 19:46:22;;;;;;;2.7;1;;;;;;;8.96;73.97656;935.9797;;;;
2022/02/17 19:48:52;;;;;;;2.1;1.1;;;;;;;8.73;75.08691;936.0385;;;;
2022/02/17 19:51:17;;;;;;;2.8;1.3;;;;;;;8.6;76.06445;935.9747;;;;
2022/02/17 19:53:47;;;;;;;3.7;1.4;;;;;;;8.63;76.67383;936.1121;;;;
2022/02/17 19:56:15;;;;;;;3.3;2.3;;;;;;;8.66;77.07617;936.2433;;;;
2022/02/17 19:58:45;;;;;;;4.1;2;;;;;;;8.71;76.77734;936.1891;;;;
2022/02/17 20:01:10;;;;;;;3.2;1.8;;;;;;;8.69;76.72852;936.3675;;;;
2022/02/17 20:03:35;;;;;;;3.9;2.6;;;;;;;8.73;76.45117;936.3633;;;;